sensor_id;sensor_type;location;lat;lon;timestamp;P1;durP1;ratioP1;P2;durP2;ratioP2
73557;SDS011;61829;53.286;10.434;2023-12-20T00:00:57;7.80;;;1.75;;
73557;SDS011;61829;53.286;10.434;2023-12-20T00:03:38;7.22;;;1.95;;
73557;SDS011;61829;53.286;10.434;2023-12-20T00:06:04;9.10;;;2.00;;
73557;SDS011;61829;53.286;10.434;2023-12-20T00:08:30;6.55;;;1.85;;
73557;SDS011;61829;53.286;10.434;2023-12-20T00:10:56;8.93;;;1.80;;
73557;SDS011;61829;53.286;10.434;2023-12-20T00:13:22;6.82;;;1.80;;
73557;SDS011;61829;53.286;10.434;2023-12-20T00:15:48;13.15;;;1.70;;
73557;SDS011;61829;53.286;10.434;2023-12-20T00:18:14;6.70;;;1.70;;
73557;SDS011;61829;53.286;10.434;2023-12-20T00:20:41;12.93;;;2.00;;
73557;SDS011;61829;53.286;10.434;2023-12-20T00:23:07;4.78;;;1.60;;
73557;SDS011;61829;53.286;10.434;2023-12-20T00:25:34;17.38;;;1.80;;
73557;SDS011;61829;53.286;10.434;2023-12-20T00:28:00;6.93;;;1.40;;
73557;SDS011;61829;53.286;10.434;2023-12-20T00:30:28;6.65;;;1.55;;
73557;SDS011;61829;53.286;10.434;2023-12-20T00:32:55;7.00;;;1.50;;
73557;SDS011;61829;53.286;10.434;2023-12-20T00:35:23;7.50;;;1.55;;
73557;SDS011;61829;53.286;10.434;2023-12-20T00:40:15;3.33;;;1.15;;
73557;SDS011;61829;53.286;10.434;2023-12-20T00:42:41;7.05;;;1.60;;
73557;SDS011;61829;53.286;10.434;2023-12-20T00:45:07;8.57;;;1.58;;
73557;SDS011;61829;53.286;10.434;2023-12-20T00:47:33;8.75;;;1.70;;
73557;SDS011;61829;53.286;10.434;2023-12-20T00:50:00;9.85;;;1.55;;
73557;SDS011;61829;53.286;10.434;2023-12-20T00:52:26;9.50;;;1.50;;
73557;SDS011;61829;53.286;10.434;2023-12-20T00:54:52;7.85;;;1.33;;
73557;SDS011;61829;53.286;10.434;2023-12-20T00:57:17;5.57;;;1.75;;
73557;SDS011;61829;53.286;10.434;2023-12-20T00:59:44;5.82;;;1.33;;
73557;SDS011;61829;53.286;10.434;2023-12-20T01:02:10;14.80;;;1.60;;
73557;SDS011;61829;53.286;10.434;2023-12-20T01:04:36;7.03;;;1.23;;
73557;SDS011;61829;53.286;10.434;2023-12-20T01:07:02;6.35;;;1.30;;
73557;SDS011;61829;53.286;10.434;2023-12-20T01:09:28;7.15;;;1.40;;
73557;SDS011;61829;53.286;10.434;2023-12-20T01:11:54;8.63;;;1.52;;
73557;SDS011;61829;53.286;10.434;2023-12-20T01:14:20;7.90;;;1.90;;
73557;SDS011;61829;53.286;10.434;2023-12-20T01:16:46;7.57;;;1.27;;
73557;SDS011;61829;53.286;10.434;2023-12-20T01:19:12;9.23;;;1.42;;
73557;SDS011;61829;53.286;10.434;2023-12-20T01:21:42;12.55;;;1.60;;
73557;SDS011;61829;53.286;10.434;2023-12-20T01:24:08;9.95;;;1.52;;
73557;SDS011;61829;53.286;10.434;2023-12-20T01:26:34;14.02;;;1.80;;
73557;SDS011;61829;53.286;10.434;2023-12-20T01:29:03;14.90;;;1.80;;
73557;SDS011;61829;53.286;10.434;2023-12-20T01:31:29;8.35;;;1.67;;
73557;SDS011;61829;53.286;10.434;2023-12-20T01:33:55;4.68;;;1.10;;
73557;SDS011;61829;53.286;10.434;2023-12-20T01:36:21;10.23;;;1.45;;
73557;SDS011;61829;53.286;10.434;2023-12-20T01:38:47;10.13;;;1.65;;
73557;SDS011;61829;53.286;10.434;2023-12-20T01:41:13;5.85;;;1.27;;
73557;SDS011;61829;53.286;10.434;2023-12-20T01:43:39;6.18;;;1.23;;
73557;SDS011;61829;53.286;10.434;2023-12-20T01:46:05;6.15;;;2.10;;
73557;SDS011;61829;53.286;10.434;2023-12-20T01:48:31;8.27;;;1.40;;
73557;SDS011;61829;53.286;10.434;2023-12-20T01:50:58;5.82;;;1.33;;
73557;SDS011;61829;53.286;10.434;2023-12-20T01:53:26;5.68;;;1.60;;
73557;SDS011;61829;53.286;10.434;2023-12-20T01:55:54;8.25;;;1.70;;
73557;SDS011;61829;53.286;10.434;2023-12-20T01:58:22;11.05;;;1.73;;
73557;SDS011;61829;53.286;10.434;2023-12-20T02:00:48;10.57;;;1.38;;
73557;SDS011;61829;53.286;10.434;2023-12-20T02:03:15;7.63;;;1.45;;
73557;SDS011;61829;53.286;10.434;2023-12-20T02:05:42;12.05;;;1.65;;
73557;SDS011;61829;53.286;10.434;2023-12-20T02:10:35;7.80;;;1.55;;
73557;SDS011;61829;53.286;10.434;2023-12-20T02:13:01;13.77;;;1.88;;
73557;SDS011;61829;53.286;10.434;2023-12-20T02:15:27;7.20;;;1.38;;
73557;SDS011;61829;53.286;10.434;2023-12-20T02:17:53;6.18;;;1.30;;
73557;SDS011;61829;53.286;10.434;2023-12-20T02:20:20;8.98;;;1.50;;
73557;SDS011;61829;53.286;10.434;2023-12-20T02:22:46;7.45;;;1.77;;
73557;SDS011;61829;53.286;10.434;2023-12-20T02:25:12;6.57;;;1.50;;
73557;SDS011;61829;53.286;10.434;2023-12-20T02:27:38;11.75;;;2.10;;
73557;SDS011;61829;53.286;10.434;2023-12-20T02:30:05;6.82;;;1.63;;
73557;SDS011;61829;53.286;10.434;2023-12-20T02:32:32;8.00;;;2.13;;
73557;SDS011;61829;53.286;10.434;2023-12-20T02:34:58;5.55;;;1.52;;
73557;SDS011;61829;53.286;10.434;2023-12-20T02:37:24;6.32;;;2.00;;
73557;SDS011;61829;53.286;10.434;2023-12-20T02:39:50;13.38;;;2.10;;
73557;SDS011;61829;53.286;10.434;2023-12-20T02:42:16;12.25;;;3.50;;
73557;SDS011;61829;53.286;10.434;2023-12-20T02:44:41;9.98;;;2.03;;
73557;SDS011;61829;53.286;10.434;2023-12-20T02:47:07;9.45;;;2.53;;
73557;SDS011;61829;53.286;10.434;2023-12-20T02:49:33;9.20;;;2.38;;
73557;SDS011;61829;53.286;10.434;2023-12-20T02:51:59;12.05;;;2.90;;
73557;SDS011;61829;53.286;10.434;2023-12-20T02:54:25;10.30;;;3.05;;
73557;SDS011;61829;53.286;10.434;2023-12-20T02:56:51;14.13;;;2.83;;
73557;SDS011;61829;53.286;10.434;2023-12-20T02:59:17;10.48;;;3.35;;
73557;SDS011;61829;53.286;10.434;2023-12-20T03:01:44;9.90;;;3.10;;
73557;SDS011;61829;53.286;10.434;2023-12-20T03:04:11;5.60;;;2.65;;
73557;SDS011;61829;53.286;10.434;2023-12-20T03:06:37;11.13;;;3.10;;
73557;SDS011;61829;53.286;10.434;2023-12-20T03:09:04;11.27;;;3.38;;
73557;SDS011;61829;53.286;10.434;2023-12-20T03:11:30;14.18;;;2.75;;
73557;SDS011;61829;53.286;10.434;2023-12-20T03:13:57;12.50;;;2.83;;
73557;SDS011;61829;53.286;10.434;2023-12-20T03:16:23;10.32;;;3.55;;
73557;SDS011;61829;53.286;10.434;2023-12-20T03:18:49;15.13;;;3.83;;
73557;SDS011;61829;53.286;10.434;2023-12-20T03:21:15;9.63;;;2.90;;
73557;SDS011;61829;53.286;10.434;2023-12-20T03:23:41;10.50;;;3.10;;
73557;SDS011;61829;53.286;10.434;2023-12-20T03:26:08;17.45;;;3.20;;
73557;SDS011;61829;53.286;10.434;2023-12-20T03:28:34;12.43;;;3.15;;
73557;SDS011;61829;53.286;10.434;2023-12-20T03:31:01;8.10;;;2.90;;
73557;SDS011;61829;53.286;10.434;2023-12-20T03:33:28;10.88;;;2.88;;
73557;SDS011;61829;53.286;10.434;2023-12-20T03:35:54;10.52;;;2.50;;
73557;SDS011;61829;53.286;10.434;2023-12-20T03:38:21;8.52;;;2.85;;
73557;SDS011;61829;53.286;10.434;2023-12-20T03:40:49;13.38;;;2.67;;
73557;SDS011;61829;53.286;10.434;2023-12-20T03:43:15;14.65;;;2.80;;
73557;SDS011;61829;53.286;10.434;2023-12-20T03:45:42;8.40;;;2.05;;
73557;SDS011;61829;53.286;10.434;2023-12-20T03:48:08;10.18;;;2.60;;
73557;SDS011;61829;53.286;10.434;2023-12-20T03:50:34;10.65;;;2.30;;
73557;SDS011;61829;53.286;10.434;2023-12-20T03:53:01;14.23;;;2.25;;
73557;SDS011;61829;53.286;10.434;2023-12-20T03:55:27;10.70;;;2.45;;
73557;SDS011;61829;53.286;10.434;2023-12-20T03:57:53;13.15;;;2.40;;
73557;SDS011;61829;53.286;10.434;2023-12-20T04:00:19;8.32;;;1.90;;
73557;SDS011;61829;53.286;10.434;2023-12-20T04:02:45;5.13;;;2.00;;
73557;SDS011;61829;53.286;10.434;2023-12-20T04:05:11;8.70;;;1.80;;
73557;SDS011;61829;53.286;10.434;2023-12-20T04:07:37;6.32;;;1.92;;
73557;SDS011;61829;53.286;10.434;2023-12-20T04:10:04;10.32;;;1.98;;
73557;SDS011;61829;53.286;10.434;2023-12-20T04:12:31;9.02;;;2.08;;
73557;SDS011;61829;53.286;10.434;2023-12-20T04:14:57;6.75;;;1.80;;
73557;SDS011;61829;53.286;10.434;2023-12-20T04:17:23;8.40;;;1.92;;
73557;SDS011;61829;53.286;10.434;2023-12-20T04:19:50;9.27;;;2.08;;
73557;SDS011;61829;53.286;10.434;2023-12-20T04:22:19;14.57;;;2.33;;
73557;SDS011;61829;53.286;10.434;2023-12-20T04:24:45;10.90;;;2.53;;
73557;SDS011;61829;53.286;10.434;2023-12-20T04:27:11;11.73;;;2.03;;
73557;SDS011;61829;53.286;10.434;2023-12-20T04:29:38;13.05;;;2.25;;
73557;SDS011;61829;53.286;10.434;2023-12-20T04:32:04;4.90;;;1.48;;
73557;SDS011;61829;53.286;10.434;2023-12-20T04:34:31;5.80;;;1.95;;
73557;SDS011;61829;53.286;10.434;2023-12-20T04:36:56;10.57;;;2.92;;
73557;SDS011;61829;53.286;10.434;2023-12-20T04:39:23;10.18;;;2.80;;
73557;SDS011;61829;53.286;10.434;2023-12-20T04:41:48;4.90;;;1.95;;
73557;SDS011;61829;53.286;10.434;2023-12-20T04:44:15;6.57;;;2.20;;
73557;SDS011;61829;53.286;10.434;2023-12-20T04:46:41;7.82;;;1.95;;
73557;SDS011;61829;53.286;10.434;2023-12-20T04:49:07;8.63;;;2.85;;
73557;SDS011;61829;53.286;10.434;2023-12-20T04:51:34;10.18;;;2.72;;
73557;SDS011;61829;53.286;10.434;2023-12-20T04:54:01;12.38;;;2.38;;
73557;SDS011;61829;53.286;10.434;2023-12-20T04:56:27;11.13;;;2.28;;
73557;SDS011;61829;53.286;10.434;2023-12-20T04:58:54;11.25;;;2.72;;
73557;SDS011;61829;53.286;10.434;2023-12-20T05:01:20;13.15;;;2.30;;
73557;SDS011;61829;53.286;10.434;2023-12-20T05:03:47;6.15;;;2.17;;
73557;SDS011;61829;53.286;10.434;2023-12-20T05:06:13;11.30;;;2.65;;
73557;SDS011;61829;53.286;10.434;2023-12-20T05:08:39;11.95;;;2.55;;
73557;SDS011;61829;53.286;10.434;2023-12-20T05:11:05;12.57;;;2.53;;
73557;SDS011;61829;53.286;10.434;2023-12-20T05:13:31;6.82;;;1.92;;
73557;SDS011;61829;53.286;10.434;2023-12-20T05:15:57;8.77;;;2.90;;
73557;SDS011;61829;53.286;10.434;2023-12-20T05:18:23;15.63;;;2.47;;
73557;SDS011;61829;53.286;10.434;2023-12-20T05:20:49;10.30;;;2.55;;
73557;SDS011;61829;53.286;10.434;2023-12-20T05:23:17;17.08;;;3.38;;
73557;SDS011;61829;53.286;10.434;2023-12-20T05:25:43;8.00;;;2.60;;
73557;SDS011;61829;53.286;10.434;2023-12-20T05:28:09;11.05;;;2.38;;
73557;SDS011;61829;53.286;10.434;2023-12-20T05:30:35;9.15;;;2.58;;
73557;SDS011;61829;53.286;10.434;2023-12-20T05:33:02;8.35;;;2.60;;
73557;SDS011;61829;53.286;10.434;2023-12-20T05:35:28;5.63;;;2.15;;
73557;SDS011;61829;53.286;10.434;2023-12-20T05:37:54;9.55;;;2.65;;
73557;SDS011;61829;53.286;10.434;2023-12-20T05:40:20;12.32;;;2.58;;
73557;SDS011;61829;53.286;10.434;2023-12-20T05:42:46;11.85;;;3.35;;
73557;SDS011;61829;53.286;10.434;2023-12-20T05:45:12;7.43;;;2.65;;
73557;SDS011;61829;53.286;10.434;2023-12-20T05:47:49;9.15;;;2.42;;
73557;SDS011;61829;53.286;10.434;2023-12-20T05:50:15;8.73;;;2.65;;
73557;SDS011;61829;53.286;10.434;2023-12-20T05:52:41;11.57;;;2.40;;
73557;SDS011;61829;53.286;10.434;2023-12-20T05:55:08;11.25;;;2.58;;
73557;SDS011;61829;53.286;10.434;2023-12-20T05:57:35;8.82;;;2.50;;
73557;SDS011;61829;53.286;10.434;2023-12-20T06:00:01;8.07;;;2.58;;
73557;SDS011;61829;53.286;10.434;2023-12-20T06:02:30;10.57;;;2.97;;
73557;SDS011;61829;53.286;10.434;2023-12-20T06:04:56;7.75;;;2.50;;
73557;SDS011;61829;53.286;10.434;2023-12-20T06:07:23;12.75;;;2.40;;
73557;SDS011;61829;53.286;10.434;2023-12-20T06:09:49;6.53;;;2.55;;
73557;SDS011;61829;53.286;10.434;2023-12-20T06:12:15;13.60;;;2.50;;
73557;SDS011;61829;53.286;10.434;2023-12-20T06:14:41;10.30;;;2.10;;
73557;SDS011;61829;53.286;10.434;2023-12-20T06:17:07;12.90;;;2.80;;
73557;SDS011;61829;53.286;10.434;2023-12-20T06:19:33;11.35;;;2.92;;
73557;SDS011;61829;53.286;10.434;2023-12-20T06:21:59;11.30;;;2.40;;
73557;SDS011;61829;53.286;10.434;2023-12-20T06:24:25;10.88;;;2.65;;
73557;SDS011;61829;53.286;10.434;2023-12-20T06:26:54;13.52;;;3.65;;
73557;SDS011;61829;53.286;10.434;2023-12-20T06:29:20;9.05;;;3.00;;
73557;SDS011;61829;53.286;10.434;2023-12-20T06:31:46;10.05;;;3.22;;
73557;SDS011;61829;53.286;10.434;2023-12-20T06:34:12;10.13;;;3.00;;
73557;SDS011;61829;53.286;10.434;2023-12-20T06:36:39;14.65;;;3.53;;
73557;SDS011;61829;53.286;10.434;2023-12-20T06:39:04;12.55;;;3.38;;
73557;SDS011;61829;53.286;10.434;2023-12-20T06:41:31;8.35;;;2.60;;
73557;SDS011;61829;53.286;10.434;2023-12-20T06:43:56;9.57;;;3.00;;
73557;SDS011;61829;53.286;10.434;2023-12-20T06:46:23;10.65;;;3.15;;
73557;SDS011;61829;53.286;10.434;2023-12-20T06:48:49;6.85;;;2.80;;
73557;SDS011;61829;53.286;10.434;2023-12-20T06:51:16;10.30;;;3.28;;
73557;SDS011;61829;53.286;10.434;2023-12-20T06:53:43;13.40;;;3.10;;
73557;SDS011;61829;53.286;10.434;2023-12-20T06:56:10;7.10;;;2.78;;
73557;SDS011;61829;53.286;10.434;2023-12-20T06:58:37;11.25;;;4.15;;
73557;SDS011;61829;53.286;10.434;2023-12-20T07:01:03;11.77;;;2.83;;
73557;SDS011;61829;53.286;10.434;2023-12-20T07:03:30;15.43;;;2.75;;
73557;SDS011;61829;53.286;10.434;2023-12-20T07:05:56;10.60;;;3.15;;
73557;SDS011;61829;53.286;10.434;2023-12-20T07:08:22;12.35;;;3.00;;
73557;SDS011;61829;53.286;10.434;2023-12-20T07:10:48;10.10;;;2.22;;
73557;SDS011;61829;53.286;10.434;2023-12-20T07:13:14;13.15;;;3.08;;
73557;SDS011;61829;53.286;10.434;2023-12-20T07:15:40;14.10;;;3.13;;
73557;SDS011;61829;53.286;10.434;2023-12-20T07:18:18;10.40;;;2.83;;
73557;SDS011;61829;53.286;10.434;2023-12-20T07:20:45;13.85;;;2.92;;
73557;SDS011;61829;53.286;10.434;2023-12-20T07:23:11;11.45;;;2.90;;
73557;SDS011;61829;53.286;10.434;2023-12-20T07:25:37;11.48;;;2.80;;
73557;SDS011;61829;53.286;10.434;2023-12-20T07:28:03;8.65;;;2.28;;
73557;SDS011;61829;53.286;10.434;2023-12-20T07:30:30;10.93;;;2.35;;
73557;SDS011;61829;53.286;10.434;2023-12-20T07:32:56;9.00;;;2.25;;
73557;SDS011;61829;53.286;10.434;2023-12-20T07:35:25;12.23;;;2.80;;
73557;SDS011;61829;53.286;10.434;2023-12-20T07:37:51;10.20;;;2.72;;
73557;SDS011;61829;53.286;10.434;2023-12-20T07:40:18;7.80;;;2.70;;
73557;SDS011;61829;53.286;10.434;2023-12-20T07:42:43;10.07;;;2.40;;
73557;SDS011;61829;53.286;10.434;2023-12-20T07:45:10;14.23;;;2.92;;
73557;SDS011;61829;53.286;10.434;2023-12-20T07:47:37;9.98;;;3.00;;
73557;SDS011;61829;53.286;10.434;2023-12-20T07:50:03;11.02;;;2.75;;
73557;SDS011;61829;53.286;10.434;2023-12-20T07:52:29;11.00;;;2.85;;
73557;SDS011;61829;53.286;10.434;2023-12-20T07:54:55;8.05;;;2.10;;
73557;SDS011;61829;53.286;10.434;2023-12-20T07:57:21;7.18;;;2.50;;
73557;SDS011;61829;53.286;10.434;2023-12-20T07:59:48;10.07;;;2.80;;
73557;SDS011;61829;53.286;10.434;2023-12-20T08:02:14;9.38;;;2.17;;
73557;SDS011;61829;53.286;10.434;2023-12-20T08:04:40;14.70;;;2.55;;
73557;SDS011;61829;53.286;10.434;2023-12-20T08:07:07;14.40;;;2.10;;
73557;SDS011;61829;53.286;10.434;2023-12-20T08:09:33;12.45;;;3.28;;
73557;SDS011;61829;53.286;10.434;2023-12-20T08:12:02;16.40;;;2.85;;
73557;SDS011;61829;53.286;10.434;2023-12-20T08:14:28;6.95;;;2.28;;
73557;SDS011;61829;53.286;10.434;2023-12-20T08:16:55;12.95;;;2.22;;
73557;SDS011;61829;53.286;10.434;2023-12-20T08:19:21;13.20;;;2.35;;
73557;SDS011;61829;53.286;10.434;2023-12-20T08:21:47;9.88;;;3.47;;
73557;SDS011;61829;53.286;10.434;2023-12-20T08:24:13;14.85;;;2.80;;
73557;SDS011;61829;53.286;10.434;2023-12-20T08:26:39;10.23;;;2.92;;
73557;SDS011;61829;53.286;10.434;2023-12-20T08:29:05;11.95;;;2.53;;
73557;SDS011;61829;53.286;10.434;2023-12-20T08:31:32;15.57;;;3.13;;
73557;SDS011;61829;53.286;10.434;2023-12-20T08:33:58;12.20;;;2.83;;
73557;SDS011;61829;53.286;10.434;2023-12-20T08:36:24;11.65;;;2.83;;
73557;SDS011;61829;53.286;10.434;2023-12-20T08:38:50;10.48;;;3.05;;
73557;SDS011;61829;53.286;10.434;2023-12-20T08:41:17;10.48;;;2.92;;
73557;SDS011;61829;53.286;10.434;2023-12-20T08:43:43;9.45;;;3.10;;
73557;SDS011;61829;53.286;10.434;2023-12-20T08:46:16;13.00;;;2.97;;
73557;SDS011;61829;53.286;10.434;2023-12-20T08:48:43;15.20;;;2.70;;
73557;SDS011;61829;53.286;10.434;2023-12-20T08:51:10;14.15;;;2.28;;
73557;SDS011;61829;53.286;10.434;2023-12-20T08:53:37;11.45;;;2.70;;
73557;SDS011;61829;53.286;10.434;2023-12-20T08:56:03;14.98;;;3.63;;
73557;SDS011;61829;53.286;10.434;2023-12-20T08:58:30;19.20;;;2.75;;
73557;SDS011;61829;53.286;10.434;2023-12-20T09:00:55;10.27;;;2.83;;
73557;SDS011;61829;53.286;10.434;2023-12-20T09:05:49;8.48;;;2.60;;
73557;SDS011;61829;53.286;10.434;2023-12-20T09:08:15;6.07;;;1.83;;
73557;SDS011;61829;53.286;10.434;2023-12-20T09:10:41;10.57;;;2.08;;
73557;SDS011;61829;53.286;10.434;2023-12-20T09:13:07;9.68;;;2.05;;
73557;SDS011;61829;53.286;10.434;2023-12-20T09:15:33;10.05;;;2.47;;
73557;SDS011;61829;53.286;10.434;2023-12-20T09:18:00;11.50;;;2.45;;
73557;SDS011;61829;53.286;10.434;2023-12-20T09:20:26;9.77;;;2.22;;
73557;SDS011;61829;53.286;10.434;2023-12-20T09:22:53;9.88;;;2.40;;
73557;SDS011;61829;53.286;10.434;2023-12-20T09:25:19;11.52;;;2.97;;
73557;SDS011;61829;53.286;10.434;2023-12-20T09:27:45;8.63;;;1.77;;
73557;SDS011;61829;53.286;10.434;2023-12-20T09:30:11;9.50;;;2.10;;
73557;SDS011;61829;53.286;10.434;2023-12-20T09:32:38;7.60;;;2.05;;
73557;SDS011;61829;53.286;10.434;2023-12-20T09:35:04;10.07;;;2.53;;
73557;SDS011;61829;53.286;10.434;2023-12-20T09:37:32;8.63;;;1.88;;
73557;SDS011;61829;53.286;10.434;2023-12-20T09:39:57;6.90;;;1.85;;
73557;SDS011;61829;53.286;10.434;2023-12-20T09:42:28;13.85;;;2.08;;
73557;SDS011;61829;53.286;10.434;2023-12-20T09:45:03;7.68;;;2.33;;
73557;SDS011;61829;53.286;10.434;2023-12-20T09:47:34;15.95;;;2.50;;
73557;SDS011;61829;53.286;10.434;2023-12-20T09:50:02;12.90;;;2.95;;
73557;SDS011;61829;53.286;10.434;2023-12-20T09:52:28;7.72;;;2.33;;
73557;SDS011;61829;53.286;10.434;2023-12-20T09:54:55;12.27;;;2.70;;
73557;SDS011;61829;53.286;10.434;2023-12-20T09:57:22;11.50;;;2.70;;
73557;SDS011;61829;53.286;10.434;2023-12-20T09:59:48;4.57;;;1.80;;
73557;SDS011;61829;53.286;10.434;2023-12-20T10:02:14;2.80;;;0.80;;
73557;SDS011;61829;53.286;10.434;2023-12-20T10:04:46;4.75;;;1.25;;
73557;SDS011;61829;53.286;10.434;2023-12-20T10:07:15;5.68;;;0.95;;
73557;SDS011;61829;53.286;10.434;2023-12-20T10:09:42;5.22;;;1.20;;
73557;SDS011;61829;53.286;10.434;2023-12-20T10:12:09;2.40;;;1.05;;
73557;SDS011;61829;53.286;10.434;2023-12-20T10:14:35;2.10;;;1.30;;
73557;SDS011;61829;53.286;10.434;2023-12-20T10:17:05;2.03;;;0.80;;
73557;SDS011;61829;53.286;10.434;2023-12-20T10:19:32;2.08;;;0.90;;
73557;SDS011;61829;53.286;10.434;2023-12-20T10:22:03;1.70;;;0.68;;
73557;SDS011;61829;53.286;10.434;2023-12-20T10:24:30;3.85;;;1.23;;
73557;SDS011;61829;53.286;10.434;2023-12-20T10:27:06;2.20;;;0.80;;
73557;SDS011;61829;53.286;10.434;2023-12-20T10:29:33;8.05;;;1.10;;
73557;SDS011;61829;53.286;10.434;2023-12-20T10:32:21;2.22;;;0.60;;
73557;SDS011;61829;53.286;10.434;2023-12-20T10:34:46;1.05;;;0.50;;
73557;SDS011;61829;53.286;10.434;2023-12-20T10:37:12;4.00;;;0.93;;
73557;SDS011;61829;53.286;10.434;2023-12-20T10:39:38;3.08;;;0.57;;
73557;SDS011;61829;53.286;10.434;2023-12-20T10:42:05;2.25;;;0.80;;
73557;SDS011;61829;53.286;10.434;2023-12-20T10:44:32;1.63;;;0.70;;
73557;SDS011;61829;53.286;10.434;2023-12-20T10:46:58;1.27;;;0.63;;
73557;SDS011;61829;53.286;10.434;2023-12-20T10:49:25;1.90;;;0.77;;
73557;SDS011;61829;53.286;10.434;2023-12-20T10:54:20;1.95;;;0.65;;
73557;SDS011;61829;53.286;10.434;2023-12-20T10:56:46;1.98;;;0.63;;
73557;SDS011;61829;53.286;10.434;2023-12-20T10:59:12;1.90;;;0.52;;
73557;SDS011;61829;53.286;10.434;2023-12-20T11:01:46;2.38;;;0.70;;
73557;SDS011;61829;53.286;10.434;2023-12-20T11:04:18;1.45;;;0.80;;
73557;SDS011;61829;53.286;10.434;2023-12-20T11:06:54;1.52;;;1.00;;
73557;SDS011;61829;53.286;10.434;2023-12-20T11:09:29;0.80;;;0.80;;
73557;SDS011;61829;53.286;10.434;2023-12-20T11:14:53;3.63;;;1.00;;
73557;SDS011;61829;53.286;10.434;2023-12-20T11:17:23;1.67;;;0.50;;
73557;SDS011;61829;53.286;10.434;2023-12-20T11:22:20;2.47;;;0.80;;
73557;SDS011;61829;53.286;10.434;2023-12-20T11:24:46;1.80;;;0.70;;
73557;SDS011;61829;53.286;10.434;2023-12-20T11:27:13;1.98;;;0.70;;
73557;SDS011;61829;53.286;10.434;2023-12-20T11:29:40;4.03;;;0.88;;
73557;SDS011;61829;53.286;10.434;2023-12-20T11:37:29;1.88;;;0.95;;
73557;SDS011;61829;53.286;10.434;2023-12-20T11:40:17;3.38;;;0.93;;
73557;SDS011;61829;53.286;10.434;2023-12-20T11:42:44;3.03;;;1.05;;
73557;SDS011;61829;53.286;10.434;2023-12-20T11:45:14;9.43;;;1.30;;
73557;SDS011;61829;53.286;10.434;2023-12-20T11:47:43;6.78;;;1.20;;
73557;SDS011;61829;53.286;10.434;2023-12-20T11:50:11;4.18;;;1.00;;
73557;SDS011;61829;53.286;10.434;2023-12-20T11:52:38;3.53;;;0.80;;
73557;SDS011;61829;53.286;10.434;2023-12-20T11:55:04;4.70;;;1.23;;
73557;SDS011;61829;53.286;10.434;2023-12-20T11:57:31;2.85;;;0.85;;
73557;SDS011;61829;53.286;10.434;2023-12-20T11:59:57;3.00;;;0.98;;
73557;SDS011;61829;53.286;10.434;2023-12-20T12:02:24;4.68;;;1.10;;
73557;SDS011;61829;53.286;10.434;2023-12-20T12:08:21;3.40;;;0.95;;
73557;SDS011;61829;53.286;10.434;2023-12-20T12:10:47;4.90;;;1.10;;
73557;SDS011;61829;53.286;10.434;2023-12-20T12:13:13;1.48;;;0.80;;
73557;SDS011;61829;53.286;10.434;2023-12-20T12:15:40;3.63;;;0.90;;
73557;SDS011;61829;53.286;10.434;2023-12-20T12:18:07;2.70;;;0.88;;
73557;SDS011;61829;53.286;10.434;2023-12-20T12:20:33;4.13;;;0.80;;
73557;SDS011;61829;53.286;10.434;2023-12-20T12:23:01;4.45;;;1.10;;
73557;SDS011;61829;53.286;10.434;2023-12-20T12:25:29;5.40;;;1.55;;
73557;SDS011;61829;53.286;10.434;2023-12-20T12:28:00;6.15;;;1.65;;
73557;SDS011;61829;53.286;10.434;2023-12-20T12:30:27;9.48;;;1.48;;
73557;SDS011;61829;53.286;10.434;2023-12-20T12:32:55;6.90;;;1.67;;
73557;SDS011;61829;53.286;10.434;2023-12-20T12:35:22;4.88;;;1.38;;
73557;SDS011;61829;53.286;10.434;2023-12-20T12:37:48;5.72;;;1.88;;
73557;SDS011;61829;53.286;10.434;2023-12-20T12:40:14;8.13;;;1.65;;
73557;SDS011;61829;53.286;10.434;2023-12-20T12:42:43;8.35;;;3.05;;
73557;SDS011;61829;53.286;10.434;2023-12-20T12:45:11;6.10;;;1.48;;
73557;SDS011;61829;53.286;10.434;2023-12-20T12:47:37;7.80;;;1.33;;
73557;SDS011;61829;53.286;10.434;2023-12-20T12:50:04;6.25;;;0.98;;
73557;SDS011;61829;53.286;10.434;2023-12-20T12:52:30;6.25;;;1.40;;
73557;SDS011;61829;53.286;10.434;2023-12-20T12:54:57;6.85;;;1.40;;
73557;SDS011;61829;53.286;10.434;2023-12-20T12:57:23;6.03;;;1.38;;
73557;SDS011;61829;53.286;10.434;2023-12-20T12:59:49;5.30;;;1.25;;
73557;SDS011;61829;53.286;10.434;2023-12-20T13:02:15;9.48;;;1.30;;
73557;SDS011;61829;53.286;10.434;2023-12-20T13:04:42;5.47;;;1.20;;
73557;SDS011;61829;53.286;10.434;2023-12-20T13:07:09;5.40;;;1.23;;
73557;SDS011;61829;53.286;10.434;2023-12-20T13:09:38;4.18;;;1.20;;
73557;SDS011;61829;53.286;10.434;2023-12-20T13:12:05;5.88;;;1.75;;
73557;SDS011;61829;53.286;10.434;2023-12-20T13:14:33;5.15;;;1.50;;
73557;SDS011;61829;53.286;10.434;2023-12-20T13:17:01;4.22;;;1.10;;
73557;SDS011;61829;53.286;10.434;2023-12-20T13:19:27;3.97;;;1.00;;
73557;SDS011;61829;53.286;10.434;2023-12-20T13:21:53;6.93;;;1.30;;
73557;SDS011;61829;53.286;10.434;2023-12-20T13:24:19;5.00;;;1.40;;
73557;SDS011;61829;53.286;10.434;2023-12-20T13:26:45;6.07;;;1.23;;
73557;SDS011;61829;53.286;10.434;2023-12-20T13:29:11;7.25;;;1.30;;
73557;SDS011;61829;53.286;10.434;2023-12-20T13:31:37;6.95;;;1.27;;
73557;SDS011;61829;53.286;10.434;2023-12-20T13:34:06;5.93;;;1.38;;
73557;SDS011;61829;53.286;10.434;2023-12-20T13:38:58;6.85;;;1.27;;
73557;SDS011;61829;53.286;10.434;2023-12-20T13:41:24;7.80;;;1.40;;
73557;SDS011;61829;53.286;10.434;2023-12-20T13:43:50;8.68;;;1.30;;
73557;SDS011;61829;53.286;10.434;2023-12-20T13:46:16;4.63;;;1.17;;
73557;SDS011;61829;53.286;10.434;2023-12-20T13:48:42;5.57;;;1.40;;
73557;SDS011;61829;53.286;10.434;2023-12-20T13:51:09;5.72;;;1.02;;
73557;SDS011;61829;53.286;10.434;2023-12-20T13:53:34;6.78;;;1.30;;
73557;SDS011;61829;53.286;10.434;2023-12-20T13:56:01;5.63;;;1.15;;
73557;SDS011;61829;53.286;10.434;2023-12-20T13:58:26;6.78;;;1.40;;
73557;SDS011;61829;53.286;10.434;2023-12-20T14:00:53;8.32;;;1.80;;
73557;SDS011;61829;53.286;10.434;2023-12-20T14:03:18;6.35;;;1.25;;
73557;SDS011;61829;53.286;10.434;2023-12-20T14:05:45;14.65;;;2.05;;
73557;SDS011;61829;53.286;10.434;2023-12-20T14:08:11;6.45;;;1.63;;
73557;SDS011;61829;53.286;10.434;2023-12-20T14:10:37;7.82;;;1.80;;
73557;SDS011;61829;53.286;10.434;2023-12-20T14:13:04;10.13;;;2.05;;
73557;SDS011;61829;53.286;10.434;2023-12-20T14:15:31;17.08;;;2.38;;
73557;SDS011;61829;53.286;10.434;2023-12-20T14:18:05;8.52;;;2.33;;
73557;SDS011;61829;53.286;10.434;2023-12-20T14:20:32;14.93;;;2.65;;
73557;SDS011;61829;53.286;10.434;2023-12-20T14:23:03;7.70;;;2.33;;
73557;SDS011;61829;53.286;10.434;2023-12-20T14:25:29;9.60;;;1.77;;
73557;SDS011;61829;53.286;10.434;2023-12-20T14:27:56;6.63;;;1.73;;
73557;SDS011;61829;53.286;10.434;2023-12-20T14:30:23;13.60;;;2.78;;
73557;SDS011;61829;53.286;10.434;2023-12-20T14:32:49;9.95;;;2.38;;
73557;SDS011;61829;53.286;10.434;2023-12-20T14:38:57;11.27;;;2.55;;
73557;SDS011;61829;53.286;10.434;2023-12-20T14:41:23;8.13;;;2.47;;
73557;SDS011;61829;53.286;10.434;2023-12-20T14:46:17;7.68;;;2.58;;
73557;SDS011;61829;53.286;10.434;2023-12-20T14:48:44;7.20;;;2.10;;
73557;SDS011;61829;53.286;10.434;2023-12-20T14:51:10;11.85;;;2.42;;
73557;SDS011;61829;53.286;10.434;2023-12-20T14:53:37;15.05;;;3.30;;
73557;SDS011;61829;53.286;10.434;2023-12-20T14:56:06;9.52;;;1.88;;
73557;SDS011;61829;53.286;10.434;2023-12-20T14:58:32;9.80;;;2.42;;